Time;durP1;ratioP1;P1;durP2;ratioP2;P2;SDS_P1;SDS_P2;PMS_P1;PMS_P2;Temp;Humidity;BMP_temperature;BMP_pressure;BME280_temperature;BME280_humidity;BME280_pressure;Samples;Min_cycle;Max_cycle;Signal;HPM_P1;HPM_P2
2023/04/08 00:01:48;;;;;;;13.97;8.97;;;1.30;99.90;;;;;;4213903;28;20268;-59
2023/04/08 00:03:49;;;;;;;16.93;10.10;;;1.30;99.90;;;;;;4212806;28;20314;-60
2023/04/08 00:05:50;;;;;;;17.13;10.67;;;1.20;99.90;;;;;;4213662;28;20273;-60
2023/04/08 00:07:52;;;;;;;17.17;9.80;;;1.20;99.90;;;;;;4212738;28;20707;-60
2023/04/08 00:09:53;;;;;;;17.07;9.90;;;1.20;99.90;;;;;;4213000;28;20273;-58
2023/04/08 00:11:56;;;;;;;14.73;9.33;;;1.30;99.90;;;;;;4213387;28;20288;-60
2023/04/08 00:13:57;;;;;;;17.53;10.77;;;1.30;99.90;;;;;;4213169;28;20310;-60
2023/04/08 00:15:58;;;;;;;16.87;10.50;;;1.30;99.90;;;;;;4213626;28;20744;-60
2023/04/08 00:17:59;;;;;;;18.33;11.53;;;1.30;99.90;;;;;;4213196;28;20671;-60
2023/04/08 00:20:01;;;;;;;18.60;11.13;;;1.20;99.90;;;;;;4213595;28;20269;-59
2023/04/08 00:22:02;;;;;;;17.80;10.63;;;1.30;99.90;;;;;;4212408;28;20699;-61
2023/04/08 00:24:03;;;;;;;18.57;11.57;;;1.30;99.90;;;;;;4213761;28;20314;-60
2023/04/08 00:26:05;;;;;;;18.03;10.93;;;1.30;99.90;;;;;;4212175;28;21146;-59
2023/04/08 00:28:06;;;;;;;17.27;10.73;;;1.20;99.90;;;;;;4213678;28;20264;-59
2023/04/08 00:30:07;;;;;;;18.80;11.87;;;1.20;99.90;;;;;;4212513;28;20261;-59
2023/04/08 00:32:09;;;;;;;18.10;11.43;;;1.20;99.90;;;;;;4213598;28;20293;-58
2023/04/08 00:34:10;;;;;;;17.73;10.33;;;1.20;99.90;;;;;;4211896;28;20292;-59
2023/04/08 00:36:11;;;;;;;18.50;10.50;;;1.10;99.90;;;;;;4213218;28;20306;-60
2023/04/08 00:38:12;;;;;;;20.33;11.50;;;1.10;99.90;;;;;;4212305;28;20322;-59
2023/04/08 00:40:13;;;;;;;18.67;10.47;;;1.10;99.90;;;;;;4213080;28;20310;-60
2023/04/08 00:42:16;;;;;;;15.23;9.50;;;1.00;99.90;;;;;;4212434;28;20273;-59
2023/04/08 00:44:17;;;;;;;15.00;10.07;;;1.00;99.90;;;;;;4212636;28;20310;-60
2023/04/08 00:46:18;;;;;;;13.13;8.37;;;1.10;99.90;;;;;;4212639;28;20298;-60
2023/04/08 00:48:19;;;;;;;15.90;9.50;;;1.10;99.90;;;;;;4212474;28;20277;-60
2023/04/08 00:50:20;;;;;;;14.10;9.23;;;1.10;99.90;;;;;;4212790;28;21111;-59
2023/04/08 00:52:21;;;;;;;15.07;9.07;;;1.10;99.90;;;;;;4211786;28;20308;-59
2023/04/08 00:54:23;;;;;;;16.43;9.30;;;1.10;99.90;;;;;;4213297;28;20261;-60
2023/04/08 00:56:25;;;;;;;14.60;9.60;;;1.10;99.90;;;;;;4211626;28;20277;-60
2023/04/08 00:58:27;;;;;;;13.57;8.63;;;1.10;99.90;;;;;;4213091;28;20269;-58
2023/04/08 01:00:30;;;;;;;15.10;9.33;;;1.10;99.90;;;;;;4211266;28;20273;-60
2023/04/08 01:02:34;;;;;;;15.67;9.90;;;1.20;99.90;;;;;;4212779;28;20265;-59
2023/04/08 01:04:54;;;;;;;15.47;9.97;;;1.20;99.90;;;;;;4211635;28;20269;-60
2023/04/08 01:07:17;;;;;;;16.00;9.68;;;1.10;99.90;;;;;;4213100;28;20264;-59
2023/04/08 01:09:22;;;;;;;14.70;8.73;;;1.10;99.90;;;;;;4211240;28;20044;-60
2023/04/08 01:11:25;;;;;;;18.87;11.53;;;1.10;99.90;;;;;;4212389;28;20288;-61
2023/04/08 01:13:31;;;;;;;18.20;10.87;;;1.10;99.90;;;;;;4211663;28;20338;-59
2023/04/08 01:15:35;;;;;;;19.50;10.37;;;1.00;99.90;;;;;;4212356;28;20265;-60
2023/04/08 01:17:37;;;;;;;17.10;10.00;;;1.00;99.90;;;;;;4211670;28;20261;-60
2023/04/08 01:19:41;;;;;;;14.97;9.90;;;1.00;99.90;;;;;;4212735;28;20275;-58
2023/04/08 01:21:43;;;;;;;17.73;10.37;;;1.00;99.90;;;;;;4211400;28;20298;-62
2023/04/08 01:24:05;;;;;;;17.30;9.47;;;1.00;99.90;;;;;;4211898;28;20318;-61
2023/04/08 01:26:07;;;;;;;15.97;9.53;;;1.00;99.90;;;;;;4211352;28;20265;-60
2023/04/08 01:28:12;;;;;;;17.83;10.37;;;1.00;99.90;;;;;;4212177;28;20346;-61
2023/04/08 01:30:14;;;;;;;18.00;10.30;;;1.00;99.90;;;;;;4211512;28;20257;-61
2023/04/08 01:32:16;;;;;;;17.43;10.90;;;1.00;99.90;;;;;;4212136;28;20284;-62
2023/04/08 01:34:19;;;;;;;16.43;10.30;;;1.00;99.90;;;;;;4212005;28;20322;-60
2023/04/08 01:36:21;;;;;;;21.20;11.70;;;1.10;99.90;;;;;;4211202;28;20278;-61
2023/04/08 01:38:25;;;;;;;19.77;11.43;;;1.00;99.90;;;;;;4212255;28;20614;-65
2023/04/08 01:40:26;;;;;;;17.60;10.67;;;1.10;99.90;;;;;;4211612;28;20667;-60
2023/04/08 01:42:29;;;;;;;20.40;11.70;;;1.00;99.90;;;;;;4211901;28;20280;-61
2023/04/08 01:44:32;;;;;;;19.37;10.90;;;1.00;99.90;;;;;;4210727;28;20330;-60
2023/04/08 01:46:34;;;;;;;17.73;10.30;;;1.00;99.90;;;;;;4212407;28;20687;-60
2023/04/08 01:48:37;;;;;;;18.13;10.73;;;1.00;99.90;;;;;;4211534;28;20291;-60
2023/04/08 01:50:40;;;;;;;15.90;10.40;;;1.00;99.90;;;;;;4212100;28;20265;-61
2023/04/08 01:52:48;;;;;;;18.97;11.47;;;1.00;99.90;;;;;;4211110;28;20436;-61
2023/04/08 01:54:49;;;;;;;19.60;11.33;;;1.00;99.90;;;;;;4212204;28;20261;-61
2023/04/08 01:56:56;;;;;;;17.57;10.07;;;1.00;99.90;;;;;;4210596;28;20288;-60
2023/04/08 01:59:01;;;;;;;17.40;10.90;;;1.00;99.90;;;;;;4211682;28;20349;-59
2023/04/08 02:01:04;;;;;;;18.63;11.33;;;1.00;99.90;;;;;;4211242;28;20663;-60
2023/04/08 02:03:06;;;;;;;17.27;10.70;;;0.90;99.90;;;;;;4211709;28;20325;-61
2023/04/08 02:05:07;;;;;;;17.50;10.13;;;1.00;99.90;;;;;;4210426;28;20277;-60
2023/04/08 02:07:10;;;;;;;17.23;9.90;;;0.90;99.90;;;;;;4212144;28;20798;-60
2023/04/08 02:09:11;;;;;;;14.40;9.47;;;0.90;99.90;;;;;;4210253;28;20265;-60
2023/04/08 02:11:12;;;;;;;16.07;9.60;;;0.90;99.90;;;;;;4211073;28;20310;-60
2023/04/08 02:13:14;;;;;;;16.67;9.13;;;0.90;99.90;;;;;;4210791;28;20288;-60
2023/04/08 02:15:15;;;;;;;15.10;9.50;;;0.90;99.90;;;;;;4211176;28;20337;-60
2023/04/08 02:17:24;;;;;;;15.50;9.53;;;1.00;99.90;;;;;;4211636;28;20265;-60
2023/04/08 02:19:39;;;;;;;16.27;10.20;;;1.00;99.90;;;;;;4210849;28;20675;-60
2023/04/08 02:21:47;;;;;;;16.07;9.43;;;1.00;99.90;;;;;;4211142;28;20610;-60
2023/04/08 02:23:50;;;;;;;15.03;9.40;;;0.90;99.90;;;;;;4211121;28;20319;-60
2023/04/08 02:25:54;;;;;;;16.33;9.27;;;1.00;99.90;;;;;;4211269;28;20318;-60
2023/04/08 02:27:56;;;;;;;17.60;9.43;;;0.90;99.90;;;;;;4210725;28;20724;-60
2023/04/08 02:29:58;;;;;;;15.97;9.43;;;0.90;99.90;;;;;;4211761;28;20306;-59
2023/04/08 02:32:02;;;;;;;15.50;9.43;;;0.90;99.90;;;;;;4210127;28;20644;-60
2023/04/08 02:34:05;;;;;;;15.37;8.93;;;0.90;99.90;;;;;;4211770;28;20322;-59
2023/04/08 02:36:07;;;;;;;15.53;9.40;;;1.00;99.90;;;;;;4210560;28;20268;-60
2023/04/08 02:38:09;;;;;;;15.77;8.97;;;0.90;99.90;;;;;;4211586;28;20280;-61
2023/04/08 02:40:29;;;;;;;17.80;9.53;;;1.00;99.90;;;;;;4209278;28;20260;-60
2023/04/08 02:42:30;;;;;;;14.67;8.33;;;0.90;99.90;;;;;;4211281;28;20281;-59
2023/04/08 02:44:31;;;;;;;15.10;8.43;;;0.90;99.90;;;;;;4210438;28;20798;-60
2023/04/08 02:46:33;;;;;;;14.50;8.33;;;0.90;99.90;;;;;;4211544;28;20265;-57
2023/04/08 02:48:34;;;;;;;15.80;8.50;;;0.90;99.90;;;;;;4210747;28;20265;-61
2023/04/08 02:50:35;;;;;;;17.53;10.27;;;0.90;99.90;;;;;;4210852;28;20272;-59
2023/04/08 02:52:36;;;;;;;16.17;8.67;;;0.80;99.90;;;;;;4209819;28;20285;-60
2023/04/08 02:54:37;;;;;;;16.57;9.73;;;0.80;99.90;;;;;;4210760;28;20273;-60
2023/04/08 02:56:39;;;;;;;16.63;9.53;;;0.70;99.90;;;;;;4210166;28;21200;-58
2023/04/08 02:58:40;;;;;;;16.57;10.23;;;0.70;99.90;;;;;;4210514;28;20598;-60
2023/04/08 03:00:41;;;;;;;16.23;10.07;;;0.70;99.90;;;;;;4211071;28;20266;-60
2023/04/08 03:02:42;;;;;;;20.20;11.83;;;0.70;99.90;;;;;;4209233;28;20277;-61
2023/04/08 03:04:43;;;;;;;17.87;10.63;;;0.70;99.90;;;;;;4211085;28;20322;-57
2023/04/08 03:06:44;;;;;;;19.00;11.47;;;0.70;99.90;;;;;;4210150;28;20326;-60
2023/04/08 03:08:45;;;;;;;18.90;12.33;;;0.70;99.90;;;;;;4211244;28;20273;-60
2023/04/08 03:10:48;;;;;;;18.30;11.30;;;0.70;99.90;;;;;;4210311;28;20322;-60
2023/04/08 03:12:49;;;;;;;19.90;11.67;;;0.70;99.90;;;;;;4211271;28;20293;-60
2023/04/08 03:14:50;;;;;;;22.13;13.13;;;0.80;99.90;;;;;;4210204;28;20875;-60
2023/04/08 03:16:51;;;;;;;14.50;9.17;;;0.80;99.90;;;;;;4211195;28;20314;-60
2023/04/08 03:18:52;;;;;;;17.17;10.23;;;0.80;99.90;;;;;;4210017;28;20765;-58
2023/04/08 03:20:53;;;;;;;17.57;9.63;;;0.80;99.90;;;;;;4210933;28;20265;-60
2023/04/08 03:22:54;;;;;;;18.80;10.70;;;0.80;99.90;;;;;;4210756;28;20744;-59
2023/04/08 03:24:56;;;;;;;17.10;10.27;;;0.90;99.90;;;;;;4214331;28;20733;-60
2023/04/08 03:26:57;;;;;;;19.27;11.00;;;0.90;99.90;;;;;;4212762;28;20302;-58
2023/04/08 03:28:58;;;;;;;18.57;11.47;;;1.00;99.90;;;;;;4214178;28;20277;-60
2023/04/08 03:31:02;;;;;;;23.90;13.43;;;1.00;99.90;;;;;;4213618;28;20276;-60
2023/04/08 03:33:06;;;;;;;24.60;13.53;;;1.00;99.90;;;;;;4213172;28;20350;-63
2023/04/08 03:35:08;;;;;;;23.10;14.40;;;1.00;99.90;;;;;;4213829;28;20306;-59
2023/04/08 03:37:09;;;;;;;28.53;16.33;;;1.00;99.90;;;;;;4212941;28;20331;-61
2023/04/08 03:39:10;;;;;;;24.47;13.93;;;1.00;99.90;;;;;;4214183;28;20273;-60
2023/04/08 03:41:12;;;;;;;20.93;12.97;;;1.00;99.90;;;;;;4213073;28;20667;-61
2023/04/08 03:43:13;;;;;;;26.20;14.57;;;0.90;99.90;;;;;;4213657;28;20345;-60
2023/04/08 03:45:14;;;;;;;27.77;15.43;;;0.90;99.90;;;;;;4212041;28;20265;-59
2023/04/08 03:47:16;;;;;;;24.23;14.90;;;0.90;99.90;;;;;;4214027;28;20280;-60
2023/04/08 03:49:17;;;;;;;28.30;15.23;;;0.90;99.90;;;;;;4213362;28;20276;-60
2023/04/08 03:51:18;;;;;;;28.43;15.37;;;0.90;99.90;;;;;;4213716;28;20322;-60
2023/04/08 03:53:19;;;;;;;24.03;15.27;;;0.90;99.90;;;;;;4212844;28;20292;-60
2023/04/08 03:55:20;;;;;;;23.63;14.77;;;0.90;99.90;;;;;;4213579;28;20384;-57
2023/04/08 03:57:21;;;;;;;28.53;16.87;;;0.90;99.90;;;;;;4212006;28;21141;-58
2023/04/08 03:59:23;;;;;;;23.90;14.60;;;0.90;99.90;;;;;;4213597;28;20272;-60
2023/04/08 04:01:24;;;;;;;30.53;18.27;;;0.90;99.90;;;;;;4212546;28;20671;-60
2023/04/08 04:03:26;;;;;;;31.43;17.83;;;0.90;99.90;;;;;;4213435;28;20317;-61
2023/04/08 04:05:27;;;;;;;29.30;17.90;;;0.90;99.90;;;;;;4213399;28;20256;-60
2023/04/08 04:07:28;;;;;;;29.83;17.83;;;0.90;99.90;;;;;;4212870;28;20264;-61
2023/04/08 04:09:30;;;;;;;30.40;17.00;;;0.90;99.90;;;;;;4213715;28;20325;-60
2023/04/08 04:11:33;;;;;;;32.07;18.17;;;0.90;99.90;;;;;;4212628;28;20389;-60
2023/04/08 04:13:34;;;;;;;32.63;17.10;;;1.00;99.90;;;;;;4213650;28;20637;-60
2023/04/08 04:15:39;;;;;;;27.73;16.40;;;1.00;99.90;;;;;;4212488;28;20256;-60
2023/04/08 04:17:40;;;;;;;30.77;16.03;;;1.00;99.90;;;;;;4197291;28;20704;-60
2023/04/08 04:19:41;;;;;;;28.93;16.07;;;1.00;99.90;;;;;;4194274;28;20319;-61
2023/04/08 04:21:43;;;;;;;30.70;16.67;;;1.10;99.90;;;;;;4196812;28;20261;-60
2023/04/08 04:23:44;;;;;;;27.47;15.67;;;1.10;99.90;;;;;;4195555;28;20752;-60
2023/04/08 04:25:45;;;;;;;27.90;16.70;;;1.10;99.90;;;;;;4196837;28;20273;-60
2023/04/08 04:27:46;;;;;;;29.97;17.07;;;1.10;99.90;;;;;;4195109;28;20277;-60
2023/04/08 04:29:48;;;;;;;29.90;17.13;;;1.10;99.90;;;;;;4196159;28;20273;-61
2023/04/08 04:31:49;;;;;;;29.03;16.90;;;1.20;99.90;;;;;;4195188;28;20668;-62
2023/04/08 04:33:50;;;;;;;30.17;17.37;;;1.20;99.90;;;;;;4196151;28;20347;-61
2023/04/08 04:35:51;;;;;;;26.00;15.87;;;1.20;99.90;;;;;;4195848;28;20269;-60
2023/04/08 04:37:52;;;;;;;28.97;15.90;;;1.20;99.90;;;;;;4210701;28;20322;-60
2023/04/08 04:39:53;;;;;;;35.13;19.13;;;1.20;99.90;;;;;;4212837;28;20272;-60
2023/04/08 04:41:54;;;;;;;36.77;19.13;;;1.20;99.90;;;;;;4223133;28;20272;-60
2023/04/08 04:43:56;;;;;;;31.93;17.43;;;1.20;99.90;;;;;;4213374;28;20741;-60
2023/04/08 04:45:58;;;;;;;29.67;17.40;;;1.20;99.90;;;;;;4211806;28;20318;-60
2023/04/08 04:47:59;;;;;;;32.57;19.13;;;1.20;99.90;;;;;;4213444;28;20345;-59
2023/04/08 04:50:00;;;;;;;34.37;19.03;;;1.20;99.90;;;;;;4211758;28;20322;-60
2023/04/08 04:52:01;;;;;;;32.83;19.37;;;1.20;99.90;;;;;;4210888;28;20671;-60
2023/04/08 04:54:03;;;;;;;31.07;18.30;;;1.20;99.90;;;;;;4211160;28;20698;-60
2023/04/08 04:56:04;;;;;;;31.00;17.70;;;1.30;99.90;;;;;;4213506;28;20326;-60
2023/04/08 04:58:05;;;;;;;32.20;16.83;;;1.30;99.90;;;;;;4211440;28;20605;-60
2023/04/08 05:00:07;;;;;;;33.67;17.97;;;1.30;99.90;;;;;;4212602;28;20260;-60
2023/04/08 05:02:08;;;;;;;27.70;16.07;;;1.30;99.90;;;;;;4212183;28;20291;-60
2023/04/08 05:04:10;;;;;;;29.40;17.73;;;1.30;99.90;;;;;;4212138;28;20269;-61
2023/04/08 05:06:11;;;;;;;27.43;16.13;;;1.30;99.90;;;;;;4211532;28;20651;-60
2023/04/08 05:08:12;;;;;;;30.40;17.60;;;1.40;99.90;;;;;;4211784;28;20276;-61
2023/04/08 05:10:13;;;;;;;34.67;18.47;;;1.40;99.90;;;;;;4211342;28;20277;-61
2023/04/08 05:12:14;;;;;;;33.37;17.73;;;1.50;99.90;;;;;;4211236;28;20269;-60
2023/04/08 05:14:15;;;;;;;34.80;18.70;;;1.50;99.90;;;;;;4211940;28;20281;-60
2023/04/08 05:16:16;;;;;;;35.17;18.73;;;1.50;99.90;;;;;;4211160;28;20273;-61
2023/04/08 05:18:18;;;;;;;32.37;17.70;;;1.50;99.90;;;;;;4212233;28;20322;-61
2023/04/08 05:20:19;;;;;;;32.47;16.87;;;1.50;99.90;;;;;;4208782;28;20284;-58
2023/04/08 05:22:20;;;;;;;35.80;19.17;;;1.60;99.90;;;;;;4212472;28;20268;-70
2023/04/08 05:24:22;;;;;;;30.60;16.47;;;1.60;99.90;;;;;;4211041;28;20264;-60
2023/04/08 05:26:23;;;;;;;28.77;16.30;;;1.60;99.90;;;;;;4212414;28;20356;-60
2023/04/08 05:28:24;;;;;;;28.27;16.13;;;1.60;99.90;;;;;;4211493;28;20268;-64
2023/04/08 05:30:25;;;;;;;24.77;14.43;;;1.60;99.90;;;;;;4206383;28;20288;-62
2023/04/08 05:32:28;;;;;;;27.83;16.10;;;1.60;99.90;;;;;;4210097;28;20308;-60
2023/04/08 05:34:30;;;;;;;30.47;15.80;;;1.60;99.90;;;;;;4210660;28;20327;-61
2023/04/08 05:36:31;;;;;;;28.63;16.07;;;1.60;99.90;;;;;;4212476;28;20269;-60
2023/04/08 05:38:33;;;;;;;27.50;15.37;;;1.60;99.90;;;;;;4227983;28;20268;-65
2023/04/08 05:40:34;;;;;;;29.20;16.07;;;1.60;99.90;;;;;;4228368;27;20305;-60
2023/04/08 05:42:35;;;;;;;26.83;15.50;;;1.60;99.90;;;;;;4213393;28;20273;-66
2023/04/08 05:44:37;;;;;;;28.50;15.60;;;1.60;99.90;;;;;;4212533;28;20249;-62
2023/04/08 05:46:40;;;;;;;25.60;14.17;;;1.60;99.90;;;;;;4210314;28;20260;-63
2023/04/08 05:48:41;;;;;;;21.97;13.10;;;1.60;99.90;;;;;;4212056;28;20306;-65
2023/04/08 05:50:42;;;;;;;22.23;13.57;;;1.60;99.90;;;;;;4210848;28;20252;-60
2023/04/08 05:52:44;;;;;;;22.30;13.50;;;1.60;99.90;;;;;;4211548;28;20318;-59
2023/04/08 05:54:45;;;;;;;22.63;14.43;;;1.70;99.90;;;;;;4210024;28;20277;-62
2023/04/08 05:56:47;;;;;;;20.60;12.50;;;1.70;99.90;;;;;;4211494;28;20389;-65
2023/04/08 05:58:49;;;;;;;24.33;12.80;;;1.80;99.90;;;;;;4210799;28;20268;-66
2023/04/08 06:00:50;;;;;;;22.67;12.50;;;1.80;99.90;;;;;;4211271;28;20322;-64
2023/04/08 06:02:51;;;;;;;22.53;13.27;;;1.80;99.90;;;;;;4209975;28;20268;-61
2023/04/08 06:04:52;;;;;;;20.03;12.03;;;1.80;99.90;;;;;;4210351;28;20338;-60
2023/04/08 06:06:53;;;;;;;21.57;13.37;;;1.80;99.90;;;;;;4210316;28;20272;-60
2023/04/08 06:08:54;;;;;;;19.37;11.60;;;1.90;99.90;;;;;;4210488;28;20276;-67
2023/04/08 06:10:56;;;;;;;18.17;11.77;;;1.90;99.90;;;;;;4210641;28;20265;-60
2023/04/08 06:12:57;;;;;;;21.07;13.50;;;2.00;99.90;;;;;;4210494;28;20361;-60
2023/04/08 06:14:58;;;;;;;22.67;13.90;;;2.00;99.90;;;;;;4211561;28;20261;-68
2023/04/08 06:16:59;;;;;;;22.73;12.53;;;2.10;99.90;;;;;;4210775;28;20257;-60
2023/04/08 06:19:00;;;;;;;20.73;12.90;;;2.10;99.90;;;;;;4211790;28;20249;-63
2023/04/08 06:21:01;;;;;;;21.27;12.07;;;2.10;99.90;;;;;;4210282;28;20261;-61
2023/04/08 06:23:02;;;;;;;20.37;11.63;;;2.20;99.90;;;;;;4211263;28;20284;-65
2023/04/08 06:25:04;;;;;;;17.93;11.77;;;2.20;99.90;;;;;;4210456;28;20264;-61
2023/04/08 06:27:05;;;;;;;17.20;11.77;;;2.20;99.90;;;;;;4210626;28;20284;-61
2023/04/08 06:29:06;;;;;;;18.50;11.33;;;2.30;99.90;;;;;;4209897;28;20276;-61
2023/04/08 06:31:08;;;;;;;17.30;11.10;;;2.30;99.90;;;;;;4210146;28;20326;-61
2023/04/08 06:33:09;;;;;;;16.83;10.60;;;2.30;99.90;;;;;;4209938;28;20296;-61
2023/04/08 06:35:10;;;;;;;17.87;11.77;;;2.20;99.90;;;;;;4211035;28;20725;-61
2023/04/08 06:37:11;;;;;;;19.67;11.47;;;2.30;99.90;;;;;;4212072;28;20244;-61
2023/04/08 06:39:13;;;;;;;18.17;12.23;;;2.30;99.90;;;;;;4222088;28;20256;-62
2023/04/08 06:41:15;;;;;;;26.10;12.07;;;2.40;99.90;;;;;;4210861;28;20257;-61
2023/04/08 06:43:16;;;;;;;17.23;11.37;;;2.50;99.90;;;;;;4209823;28;20280;-61
2023/04/08 06:45:17;;;;;;;16.07;10.00;;;2.40;99.90;;;;;;4210754;28;20704;-62
2023/04/08 06:47:18;;;;;;;16.40;10.27;;;2.40;99.90;;;;;;4210088;28;20306;-62
2023/04/08 06:49:19;;;;;;;18.13;11.03;;;2.50;99.90;;;;;;4211255;28;20330;-61
2023/04/08 06:51:20;;;;;;;15.43;10.20;;;2.50;99.90;;;;;;4210207;28;20264;-60
2023/04/08 06:53:23;;;;;;;16.90;10.87;;;2.50;99.90;;;;;;4210892;28;20325;-61
2023/04/08 06:55:24;;;;;;;18.00;11.03;;;2.60;99.90;;;;;;4209785;28;20721;-64
2023/04/08 06:57:25;;;;;;;19.73;11.60;;;2.70;99.90;;;;;;4210577;28;20280;-59
2023/04/08 06:59:27;;;;;;;16.90;11.30;;;2.80;99.90;;;;;;4208830;28;20318;-63
2023/04/08 07:01:28;;;;;;;16.33;10.50;;;2.80;99.90;;;;;;4211087;28;20264;-62
2023/04/08 07:03:29;;;;;;;17.67;11.43;;;2.80;99.90;;;;;;4210074;28;20329;-61
2023/04/08 07:05:30;;;;;;;17.00;10.17;;;2.90;99.90;;;;;;4211069;28;20257;-61
2023/04/08 07:07:31;;;;;;;17.37;10.30;;;2.90;99.90;;;;;;4208152;28;20624;-61
2023/04/08 07:09:32;;;;;;;15.47;10.03;;;3.00;99.90;;;;;;4210354;28;20318;-61
2023/04/08 07:11:34;;;;;;;14.43;9.63;;;3.00;99.90;;;;;;4210102;28;20630;-60
2023/04/08 07:13:35;;;;;;;15.00;9.13;;;3.00;99.90;;;;;;4209389;28;20711;-63
2023/04/08 07:15:36;;;;;;;14.37;9.30;;;3.10;99.90;;;;;;4210744;28;20280;-60
2023/04/08 07:17:38;;;;;;;33.17;20.43;;;3.20;99.90;;;;;;4209120;28;20249;-60
2023/04/08 07:19:39;;;;;;;16.27;10.77;;;3.20;99.90;;;;;;4211466;28;20257;-61
2023/04/08 07:21:41;;;;;;;15.70;10.07;;;3.30;99.90;;;;;;4209269;28;20260;-61
2023/04/08 07:23:42;;;;;;;17.20;10.17;;;3.30;99.90;;;;;;4211021;28;20258;-66
2023/04/08 07:25:43;;;;;;;20.03;10.87;;;3.40;99.90;;;;;;4209678;28;20322;-63
2023/04/08 07:27:44;;;;;;;15.63;10.07;;;3.50;99.90;;;;;;4210407;28;21101;-60
2023/04/08 07:29:45;;;;;;;14.80;9.13;;;3.50;99.90;;;;;;4209740;28;20264;-61
2023/04/08 07:31:46;;;;;;;15.97;10.53;;;3.60;99.90;;;;;;4209709;28;20272;-60
2023/04/08 07:33:47;;;;;;;18.30;12.00;;;3.60;99.90;;;;;;4209324;28;20292;-64
2023/04/08 07:35:49;;;;;;;18.90;12.33;;;3.70;99.90;;;;;;4210053;28;20273;-62
2023/04/08 07:37:50;;;;;;;21.47;13.03;;;3.60;99.90;;;;;;4209875;28;20652;-62
2023/04/08 07:39:51;;;;;;;14.87;9.77;;;3.70;99.90;;;;;;4209697;28;20268;-64
2023/04/08 07:41:52;;;;;;;18.73;11.83;;;3.80;99.90;;;;;;4209218;28;20264;-61
2023/04/08 07:43:53;;;;;;;14.13;9.20;;;3.80;99.90;;;;;;4209084;28;20269;-61
2023/04/08 07:46:01;;;;;;;16.23;10.67;;;3.90;99.90;;;;;;4210095;28;20318;-63
2023/04/08 07:48:02;;;;;;;14.63;9.73;;;4.00;99.90;;;;;;4209725;28;20245;-62
2023/04/08 07:50:04;;;;;;;19.33;10.27;;;4.10;99.90;;;;;;4210833;28;20261;-61
2023/04/08 07:52:05;;;;;;;17.90;11.20;;;4.10;99.90;;;;;;4209315;28;20342;-62
2023/04/08 07:54:06;;;;;;;14.70;10.13;;;4.10;99.90;;;;;;4210134;28;20457;-63
2023/04/08 07:56:14;;;;;;;14.13;8.93;;;4.20;99.90;;;;;;4209067;28;20281;-61
2023/04/08 07:58:16;;;;;;;15.00;9.73;;;4.20;99.90;;;;;;4210003;28;20284;-62
2023/04/08 08:00:20;;;;;;;14.43;9.93;;;4.20;99.90;;;;;;4209168;28;20322;-63
2023/04/08 08:02:21;;;;;;;13.20;9.00;;;4.20;99.90;;;;;;4210584;28;20276;-71
2023/04/08 08:04:24;;;;;;;12.47;8.73;;;4.30;99.90;;;;;;4209311;28;20265;-63
2023/04/08 08:06:26;;;;;;;12.27;9.20;;;4.40;99.90;;;;;;4209981;28;20322;-64
2023/04/08 08:08:27;;;;;;;12.27;8.60;;;4.40;99.90;;;;;;4209302;28;20257;-66
2023/04/08 08:10:28;;;;;;;13.57;9.20;;;4.60;99.90;;;;;;4211576;28;20281;-63
2023/04/08 08:12:30;;;;;;;13.23;8.77;;;4.70;99.90;;;;;;4212414;28;20309;-61
2023/04/08 08:14:31;;;;;;;11.10;8.20;;;4.80;99.90;;;;;;4212959;28;20845;-61
2023/04/08 08:16:32;;;;;;;11.07;7.90;;;4.90;99.90;;;;;;4212468;28;20790;-62
2023/04/08 08:18:34;;;;;;;10.37;7.70;;;5.10;99.90;;;;;;4212513;28;20322;-71
2023/04/08 08:20:35;;;;;;;11.07;8.30;;;5.30;99.90;;;;;;4212832;28;20911;-62
2023/04/08 08:22:38;;;;;;;10.57;6.87;;;5.40;99.90;;;;;;4212099;28;20326;-64
2023/04/08 08:24:39;;;;;;;11.73;7.87;;;5.50;99.90;;;;;;4212825;28;20314;-62
2023/04/08 08:26:40;;;;;;;12.60;8.30;;;5.60;99.90;;;;;;4211675;28;20462;-62
2023/04/08 08:28:42;;;;;;;10.97;7.27;;;5.70;99.90;;;;;;4212795;28;20525;-62
2023/04/08 08:30:43;;;;;;;8.87;6.50;;;5.80;99.90;;;;;;4210341;28;20105;-62
2023/04/08 08:32:44;;;;;;;12.20;7.20;;;5.60;99.90;;;;;;4213111;28;20086;-65
2023/04/08 08:34:45;;;;;;;9.20;6.63;;;5.60;99.90;;;;;;4211636;28;20054;-64
2023/04/08 08:36:46;;;;;;;9.43;7.53;;;5.50;99.90;;;;;;4212862;28;20074;-63
2023/04/08 08:38:47;;;;;;;9.33;6.40;;;5.40;99.90;;;;;;4211610;28;20044;-63
2023/04/08 08:40:57;;;;;;;10.33;6.83;;;5.40;99.90;;;;;;4212792;28;20081;-62
2023/04/08 08:43:00;;;;;;;9.83;6.90;;;5.40;99.90;;;;;;4211769;28;20440;-64
2023/04/08 08:45:02;;;;;;;10.87;6.90;;;5.40;99.90;;;;;;4212726;28;20032;-63
2023/04/08 08:47:04;;;;;;;17.17;7.13;;;5.40;99.90;;;;;;4209997;28;20036;-65
2023/04/08 08:49:05;;;;;;;11.10;7.30;;;5.40;99.90;;;;;;4210299;28;20103;-63
2023/04/08 08:51:11;;;;;;;10.23;6.97;;;5.40;99.90;;;;;;4211866;28;20550;-63
2023/04/08 08:53:12;;;;;;;10.00;6.97;;;5.40;99.90;;;;;;4211774;28;20044;-64
2023/04/08 08:55:13;;;;;;;8.50;6.57;;;5.30;99.90;;;;;;4211939;28;20040;-62
2023/04/08 08:57:18;;;;;;;9.57;6.67;;;5.40;99.90;;;;;;4211440;28;20044;-63
2023/04/08 08:59:20;;;;;;;9.87;6.53;;;5.40;99.90;;;;;;4212466;28;20032;-62
2023/04/08 09:01:37;;;;;;;10.07;7.00;;;5.50;99.90;;;;;;4211133;28;20065;-61
2023/04/08 09:03:39;;;;;;;10.67;6.83;;;5.70;99.90;;;;;;4212353;28;20486;-62
2023/04/08 09:05:57;;;;;;;9.17;6.37;;;5.80;99.90;;;;;;4210849;28;20092;-66
2023/04/08 09:07:59;;;;;;;8.93;6.23;;;5.90;99.90;;;;;;4212583;28;20073;-67
2023/04/08 09:10:00;;;;;;;8.70;6.23;;;6.00;99.90;;;;;;4211400;28;20036;-64
2023/04/08 09:12:05;;;;;;;10.13;6.97;;;6.10;99.90;;;;;;4212175;28;20442;-67
2023/04/08 09:14:22;;;;;;;8.07;6.03;;;6.10;99.90;;;;;;4211273;28;20435;-65
2023/04/08 09:16:23;;;;;;;7.93;5.80;;;6.10;99.90;;;;;;4211907;28;20036;-63
2023/04/08 09:18:25;;;;;;;7.53;5.37;;;6.10;99.90;;;;;;4209398;28;20036;-62
2023/04/08 09:20:26;;;;;;;7.57;5.57;;;6.10;99.90;;;;;;4211980;28;20054;-61
2023/04/08 09:22:27;;;;;;;7.73;5.47;;;6.10;99.90;;;;;;4211068;28;20032;-63
2023/04/08 09:24:30;;;;;;;10.10;5.53;;;6.20;99.90;;;;;;4211835;28;20488;-61
2023/04/08 09:26:31;;;;;;;8.60;6.00;;;6.30;99.90;;;;;;4210424;28;20085;-61
2023/04/08 09:28:32;;;;;;;8.37;5.80;;;6.40;99.90;;;;;;4211803;28;20153;-62
2023/04/08 09:30:34;;;;;;;7.77;5.93;;;6.40;99.90;;;;;;4210511;28;20878;-61
2023/04/08 09:32:52;;;;;;;6.40;5.20;;;6.40;99.90;;;;;;4211770;28;20032;-61
2023/04/08 09:34:53;;;;;;;6.13;4.70;;;6.50;99.90;;;;;;4210456;28;20036;-61
2023/04/08 09:36:55;;;;;;;5.53;4.33;;;6.60;99.90;;;;;;4211751;28;20370;-67
2023/04/08 09:38:57;;;;;;;5.93;4.67;;;6.70;99.90;;;;;;4211293;28;20493;-62
2023/04/08 09:41:02;;;;;;;6.83;4.80;;;6.80;99.90;;;;;;4211021;28;20069;-69
2023/04/08 09:43:05;;;;;;;5.87;4.53;;;6.80;99.90;;;;;;4211419;28;20049;-62
2023/04/08 09:45:09;;;;;;;5.57;4.63;;;6.90;99.90;;;;;;4210929;28;20569;-65
2023/04/08 09:47:25;;;;;;;5.83;4.47;;;7.10;99.90;;;;;;4211695;28;20024;-62
2023/04/08 09:49:45;;;;;;;5.50;4.27;;;7.20;99.90;;;;;;4210834;28;20533;-62
2023/04/08 09:52:05;;;;;;;6.40;5.03;;;7.20;99.90;;;;;;4211231;28;20032;-62
2023/04/08 09:54:15;;;;;;;5.38;4.40;;;7.10;99.90;;;;;;4211235;28;20068;-62
2023/04/08 09:56:18;;;;;;;6.67;5.27;;;7.10;99.90;;;;;;4209241;28;20101;-63
2023/04/08 09:58:26;;;;;;;6.47;4.83;;;7.20;99.90;;;;;;4211093;28;20032;-68
2023/04/08 10:00:45;;;;;;;6.00;4.37;;;7.30;99.90;;;;;;4210776;28;20044;-63
2023/04/08 10:03:01;;;;;;;6.17;4.40;;;7.40;99.90;;;;;;4211245;28;20024;-63
2023/04/08 10:05:04;;;;;;;6.70;5.70;;;7.30;99.90;;;;;;4209925;28;20121;-62
2023/04/08 10:07:07;;;;;;;4.83;4.30;;;7.40;99.90;;;;;;4210587;28;20090;-63
2023/04/08 10:09:09;;;;;;;5.50;4.00;;;7.50;99.90;;;;;;4210867;28;20024;-62
2023/04/08 10:11:10;;;;;;;5.93;4.40;;;7.40;99.90;;;;;;4210805;28;20129;-62
2023/04/08 10:13:12;;;;;;;4.23;3.77;;;7.50;99.90;;;;;;4211172;28;20097;-62
2023/04/08 10:15:29;;;;;;;5.03;4.20;;;7.50;99.90;;;;;;4209772;28;20386;-62
2023/04/08 10:17:35;;;;;;;4.43;3.90;;;7.70;99.90;;;;;;4211114;28;20530;-64
2023/04/08 10:19:40;;;;;;;5.60;4.40;;;7.70;99.90;;;;;;4209947;28;20110;-61
2023/04/08 10:21:42;;;;;;;6.43;4.67;;;7.70;99.90;;;;;;4211087;28;20020;-61
2023/04/08 10:23:55;;;;;;;6.27;4.70;;;7.50;99.90;;;;;;4209781;28;20451;-61
2023/04/08 10:25:56;;;;;;;5.10;4.60;;;7.50;99.90;;;;;;4211370;28;20024;-65
2023/04/08 10:28:22;;;;;;;5.67;4.50;;;7.40;99.90;;;;;;4209798;28;20442;-62
2023/04/08 10:30:32;;;;;;;6.53;5.20;;;7.40;99.90;;;;;;4202978;28;20073;-62
2023/04/08 10:32:40;;;;;;;7.05;5.28;;;7.50;99.90;;;;;;4209437;28;20105;-62
2023/04/08 10:34:52;;;;;;;6.90;5.50;;;7.40;99.90;;;;;;4210351;28;20056;-62
2023/04/08 10:36:55;;;;;;;7.53;5.77;;;7.40;99.90;;;;;;4210239;28;20462;-62